createdAt,value
2018-09-26T00:00:15.986Z,0
2018-09-26T00:01:25.820Z,0
2018-09-26T00:02:35.999Z,0
2018-09-26T00:03:46.109Z,0
2018-09-26T00:04:56.215Z,0
2018-09-26T00:06:06.323Z,0
2018-09-26T00:07:16.440Z,0
2018-09-26T00:08:26.276Z,0
2018-09-26T00:09:36.112Z,0
2018-09-26T00:10:46.221Z,0
2018-09-26T00:11:56.336Z,0
2018-09-26T00:13:05.944Z,0
2018-09-26T00:14:16.104Z,0
2018-09-26T00:15:26.212Z,0
2018-09-26T00:16:36.052Z,0
2018-09-26T00:17:45.890Z,0
2018-09-26T00:18:55.789Z,0
2018-09-26T00:20:05.951Z,0
2018-09-26T00:21:16.051Z,0
2018-09-26T00:22:25.888Z,0
2018-09-26T00:23:35.996Z,0
2018-09-26T00:24:45.833Z,0
2018-09-26T00:25:55.988Z,0
2018-09-26T00:27:05.824Z,0
2018-09-26T00:28:15.938Z,0
2018-09-26T00:29:25.500Z,0
2018-09-26T00:30:35.336Z,0
2018-09-26T00:31:44.948Z,0
2018-09-26T00:32:55.060Z,0
2018-09-26T00:34:04.622Z,0
2018-09-26T00:35:14.734Z,0
2018-09-26T00:36:25.131Z,0
2018-09-26T00:37:35.051Z,0
2018-09-26T00:38:45.254Z,0
2018-09-26T00:39:55.359Z,0
2018-09-26T00:41:05.465Z,0
2018-09-26T00:42:15.582Z,0
2018-09-26T00:43:25.465Z,0
2018-09-26T00:44:35.029Z,0
2018-09-26T00:45:45.134Z,0
2018-09-26T00:46:55.238Z,0
2018-09-26T00:48:05.357Z,0
2018-09-26T00:49:16.923Z,0
2018-09-26T00:50:26.757Z,0
2018-09-26T00:51:36.591Z,0
2018-09-26T00:52:46.741Z,0
2018-09-26T00:53:56.337Z,0
2018-09-26T00:55:06.497Z,0
2018-09-26T00:56:16.608Z,0
2018-09-26T00:57:26.718Z,0
2018-09-26T00:58:36.553Z,0
2018-09-26T00:59:46.390Z,0
2018-09-26T01:00:56.323Z,0
2018-09-26T01:02:06.161Z,0
2018-09-26T01:03:15.450Z,0
2018-09-26T01:04:25.557Z,0
2018-09-26T01:05:35.392Z,0
2018-09-26T01:06:45.499Z,0
2018-09-26T01:07:55.613Z,0
2018-09-26T01:09:05.454Z,0
2018-09-26T01:10:15.293Z,0
2018-09-26T01:11:25.406Z,0
2018-09-26T01:12:35.290Z,0
2018-09-26T01:13:45.408Z,0
2018-09-26T01:14:55.257Z,0
2018-09-26T01:16:05.369Z,0
2018-09-26T01:17:15.201Z,0
2018-09-26T01:18:25.309Z,0
2018-09-26T01:19:35.422Z,0
2018-09-26T01:20:45.257Z,0
2018-09-26T01:21:55.366Z,0
2018-09-26T01:23:05.475Z,0
2018-09-26T01:24:15.085Z,0
2018-09-26T01:25:25.196Z,0
2018-09-26T01:26:35.306Z,0
2018-09-26T01:27:45.139Z,0
2018-09-26T01:28:54.971Z,0
2018-09-26T01:30:05.082Z,0
2018-09-26T01:31:14.642Z,0
2018-09-26T01:32:24.753Z,0
2018-09-26T01:33:34.859Z,0
2018-09-26T01:34:45.028Z,0
2018-09-26T01:35:54.956Z,0
2018-09-26T01:37:04.789Z,0
2018-09-26T01:38:14.635Z,0
2018-09-26T01:39:24.473Z,0
2018-09-26T01:40:34.315Z,0
2018-09-26T01:41:44.429Z,0
2018-09-26T01:42:54.533Z,0
2018-09-26T01:44:04.094Z,0
2018-09-26T01:45:13.938Z,0
2018-09-26T01:46:23.821Z,0
2018-09-26T01:47:33.757Z,0
2018-09-26T01:48:43.866Z,0
2018-09-26T01:49:53.975Z,0
2018-09-26T01:51:04.086Z,0
2018-09-26T01:52:13.920Z,0
2018-09-26T01:53:24.072Z,0
2018-09-26T01:54:33.907Z,0
2018-09-26T01:55:43.744Z,0
2018-09-26T01:56:53.855Z,0
2018-09-26T01:58:03.967Z,0
2018-09-26T01:59:14.131Z,0
2018-09-26T02:00:23.965Z,0
2018-09-26T02:01:33.806Z,0
2018-09-26T02:02:43.920Z,0
2018-09-26T02:03:54.040Z,0
2018-09-26T02:05:04.167Z,0
2018-09-26T02:06:14.276Z,0
2018-09-26T02:07:24.111Z,0
2018-09-26T02:08:34.220Z,0
2018-09-26T02:09:44.057Z,0
2018-09-26T02:10:53.940Z,0
2018-09-26T02:12:03.774Z,0
2018-09-26T02:13:13.345Z,0
2018-09-26T02:14:23.180Z,0
2018-09-26T02:15:33.016Z,0
2018-09-26T02:16:43.172Z,0
2018-09-26T02:17:53.282Z,0
2018-09-26T02:19:03.395Z,0
2018-09-26T02:20:13.227Z,0
2018-09-26T02:21:22.786Z,0
2018-09-26T02:22:32.893Z,0
2018-09-26T02:23:43.215Z,0
2018-09-26T02:24:53.515Z,0
2018-09-26T02:26:03.349Z,0
2018-09-26T02:27:13.456Z,0
2018-09-26T02:28:23.610Z,0
2018-09-26T02:29:33.720Z,0
2018-09-26T02:30:43.829Z,0
2018-09-26T02:31:53.673Z,0
2018-09-26T02:33:02.962Z,0
2018-09-26T02:34:12.856Z,0
2018-09-26T02:35:22.697Z,0
2018-09-26T02:36:32.809Z,0
2018-09-26T02:37:42.642Z,0
2018-09-26T02:38:52.757Z,0
2018-09-26T02:40:02.869Z,0
2018-09-26T02:41:12.703Z,0
2018-09-26T02:42:22.261Z,0
2018-09-26T02:43:32.093Z,0
2018-09-26T02:44:42.201Z,0
2018-09-26T02:45:52.312Z,0
2018-09-26T02:47:02.428Z,0
2018-09-26T02:48:12.294Z,0
2018-09-26T02:49:22.412Z,0
2018-09-26T02:50:32.256Z,0
2018-09-26T02:51:41.817Z,0
2018-09-26T02:52:51.929Z,0
2018-09-26T02:54:02.042Z,0
2018-09-26T02:55:10.790Z,0
2018-09-26T02:56:20.634Z,0
2018-09-26T02:57:30.522Z,0
2018-09-26T02:58:40.355Z,0
2018-09-26T02:59:50.194Z,0
2018-09-26T03:01:00.314Z,0
2018-09-26T03:02:10.160Z,0
2018-09-26T03:03:20.095Z,0
2018-09-26T03:04:29.934Z,0
2018-09-26T03:05:39.785Z,0
2018-09-26T03:06:49.896Z,0
2018-09-26T03:08:00.047Z,0
2018-09-26T03:09:10.164Z,0
2018-09-26T03:10:20.005Z,0
2018-09-26T03:11:30.116Z,0
2018-09-26T03:12:40.225Z,0
2018-09-26T03:13:50.064Z,0
2018-09-26T03:14:59.956Z,0
2018-09-26T03:16:09.516Z,0
2018-09-26T03:17:19.638Z,0
2018-09-26T03:18:29.210Z,0
2018-09-26T03:19:39.046Z,0
2018-09-26T03:20:48.878Z,0
2018-09-26T03:21:58.993Z,0
2018-09-26T03:23:08.556Z,0
2018-09-26T03:24:18.394Z,0
2018-09-26T03:25:28.515Z,0
2018-09-26T03:26:38.408Z,0
2018-09-26T03:27:48.251Z,0
2018-09-26T03:28:58.082Z,0
2018-09-26T03:30:08.214Z,0
2018-09-26T03:31:18.355Z,0
2018-09-26T03:32:28.483Z,0
2018-09-26T03:33:38.383Z,0
2018-09-26T03:34:48.325Z,0
2018-09-26T03:35:58.435Z,0
2018-09-26T03:37:08.544Z,0
2018-09-26T03:38:18.672Z,0
2018-09-26T03:39:28.509Z,0
2018-09-26T03:40:38.360Z,0
2018-09-26T03:41:48.479Z,0
2018-09-26T03:42:58.591Z,0
2018-09-26T03:44:08.480Z,0
2018-09-26T03:45:18.321Z,0
2018-09-26T03:46:28.449Z,0
2018-09-26T03:47:38.284Z,0
2018-09-26T03:48:48.126Z,0
2018-09-26T03:49:58.014Z,0
2018-09-26T03:51:08.119Z,0
2018-09-26T03:52:17.966Z,0
2018-09-26T03:53:28.072Z,0
2018-09-26T03:54:37.939Z,0
2018-09-26T03:55:48.135Z,0
2018-09-26T03:56:58.270Z,0
2018-09-26T03:58:08.137Z,0
2018-09-26T03:59:17.720Z,0
2018-09-26T04:00:27.862Z,0
2018-09-26T04:01:38.040Z,0
2018-09-26T04:02:48.179Z,0
2018-09-26T04:03:57.769Z,0
2018-09-26T04:05:07.989Z,0
2018-09-26T04:06:17.648Z,0
2018-09-26T04:07:27.781Z,0
2018-09-26T04:08:37.641Z,0
2018-09-26T04:09:47.783Z,0
2018-09-26T04:10:57.918Z,0
2018-09-26T04:12:07.789Z,0
2018-09-26T04:13:18.305Z,0
2018-09-26T04:14:28.445Z,0
2018-09-26T04:15:38.894Z,0
2018-09-26T04:16:49.299Z,0
2018-09-26T04:17:58.896Z,0
2018-09-26T04:19:09.099Z,0
2018-09-26T04:20:19.434Z,0
2018-09-26T04:21:29.723Z,0
2018-09-26T04:22:39.864Z,0
2018-09-26T04:23:50.010Z,0
2018-09-26T04:24:59.885Z,0
2018-09-26T04:26:10.204Z,0
2018-09-26T04:27:20.202Z,0
2018-09-26T04:28:30.407Z,0
2018-09-26T04:29:40.090Z,0
2018-09-26T04:30:50.181Z,0
2018-09-26T04:32:00.070Z,0
2018-09-26T04:33:10.161Z,0
2018-09-26T04:34:20.945Z,0
2018-09-26T04:35:30.809Z,0
2018-09-26T04:36:40.392Z,0
2018-09-26T04:37:50.524Z,4
2018-09-26T04:39:01.255Z,4
2018-09-26T04:40:10.841Z,0
2018-09-26T04:41:20.979Z,4
2018-09-26T04:42:31.171Z,4
2018-09-26T04:43:41.308Z,8
2018-09-26T04:44:51.450Z,8
2018-09-26T04:46:01.042Z,8
2018-09-26T04:47:11.179Z,12
2018-09-26T04:48:21.084Z,12
2018-09-26T04:49:30.938Z,16
2018-09-26T04:50:41.131Z,16
2018-09-26T04:51:51.066Z,20
2018-09-26T04:53:00.372Z,24
2018-09-26T04:54:10.054Z,28
2018-09-26T04:55:20.185Z,28
2018-09-26T04:56:30.089Z,36
2018-09-26T04:57:40.263Z,40
2018-09-26T04:58:50.199Z,48
2018-09-26T05:00:00.388Z,52
2018-09-26T05:01:10.248Z,56
2018-09-26T05:02:19.832Z,64
2018-09-26T05:03:29.414Z,68
2018-09-26T05:04:39.551Z,76
2018-09-26T05:05:49.457Z,84
2018-09-26T05:06:59.313Z,84
2018-09-26T05:08:08.922Z,92
2018-09-26T05:09:19.117Z,96
2018-09-26T05:10:28.977Z,108
2018-09-26T05:11:38.608Z,116
2018-09-26T05:12:48.464Z,124
2018-09-26T05:13:58.597Z,140
2018-09-26T05:15:08.457Z,152
2018-09-26T05:16:18.601Z,164
2018-09-26T05:17:28.833Z,180
2018-09-26T05:18:38.969Z,188
2018-09-26T05:19:48.825Z,200
2018-09-26T05:20:58.133Z,216
2018-09-26T05:22:07.439Z,228
2018-09-26T05:23:17.078Z,248
2018-09-26T05:24:27.240Z,264
2018-09-26T05:25:37.370Z,284
2018-09-26T05:26:47.229Z,304
2018-09-26T05:27:57.368Z,316
2018-09-26T05:29:07.281Z,328
2018-09-26T05:30:17.514Z,348
2018-09-26T05:31:27.839Z,368
2018-09-26T05:32:37.698Z,388
2018-09-26T05:33:47.564Z,404
2018-09-26T05:34:57.471Z,412
2018-09-26T05:36:07.611Z,420
2018-09-26T05:37:17.466Z,428
2018-09-26T05:38:27.601Z,432
2018-09-26T05:39:37.732Z,444
2018-09-26T05:40:47.915Z,472
2018-09-26T05:41:58.364Z,508
2018-09-26T05:43:08.231Z,548
2018-09-26T05:44:18.386Z,592
2018-09-26T05:45:28.572Z,640
2018-09-26T05:46:38.485Z,696
2018-09-26T05:47:48.076Z,772
2018-09-26T05:48:58.209Z,872
2018-09-26T05:50:08.423Z,980
2018-09-26T05:51:18.128Z,1072
2018-09-26T05:52:28.388Z,1156
2018-09-26T05:53:38.838Z,1236
2018-09-26T05:54:48.423Z,1296
2018-09-26T05:55:58.561Z,1372
2018-09-26T05:57:08.695Z,1440
2018-09-26T05:58:18.330Z,1480
2018-09-26T05:59:28.214Z,1484
2018-09-26T06:00:38.395Z,1512
2018-09-26T06:01:48.527Z,1544
2018-09-26T06:02:58.670Z,1560
2018-09-26T06:04:08.863Z,1600
2018-09-26T06:05:19.081Z,1636
2018-09-26T06:06:29.291Z,1664
2018-09-26T06:07:38.872Z,1692
2018-09-26T06:08:49.007Z,1772
2018-09-26T06:09:58.911Z,1852
2018-09-26T06:11:08.776Z,1844
2018-09-26T06:12:18.631Z,1788
2018-09-26T06:13:28.563Z,1744
2018-09-26T06:14:38.422Z,1716
2018-09-26T06:15:48.057Z,1708
2018-09-26T06:16:58.190Z,1688
2018-09-26T06:18:08.104Z,1608
2018-09-26T06:19:17.968Z,1624
2018-09-26T06:20:27.828Z,1612
2018-09-26T06:21:37.733Z,1676
2018-09-26T06:22:47.868Z,1732
2018-09-26T06:23:57.998Z,1724
2018-09-26T06:25:08.130Z,1588
2018-09-26T06:26:17.730Z,1564
2018-09-26T06:27:27.959Z,1608
2018-09-26T06:28:38.105Z,1728
2018-09-26T06:29:47.741Z,1840
2018-09-26T06:30:57.874Z,1912
2018-09-26T06:32:07.732Z,1956
2018-09-26T06:33:17.922Z,2012
2018-09-26T06:34:27.790Z,2108
2018-09-26T06:35:37.650Z,2168
2018-09-26T06:36:47.508Z,2156
2018-09-26T06:37:57.640Z,2120
2018-09-26T06:39:06.947Z,2100
2018-09-26T06:40:17.195Z,2128
2018-09-26T06:41:27.386Z,2216
2018-09-26T06:42:36.824Z,2344
2018-09-26T06:43:47.238Z,2456
2018-09-26T06:44:57.506Z,2460
2018-09-26T06:46:07.365Z,2532
2018-09-26T06:47:17.545Z,2608
2018-09-26T06:48:27.468Z,2660
2018-09-26T06:49:36.793Z,2768
2018-09-26T06:50:46.993Z,2848
2018-09-26T06:51:56.854Z,3068
2018-09-26T06:53:06.455Z,3076
2018-09-26T06:54:16.456Z,2956
2018-09-26T06:55:26.324Z,2888
2018-09-26T06:56:36.515Z,2992
2018-09-26T06:57:46.651Z,3040
2018-09-26T06:58:56.519Z,3152
2018-09-26T07:00:06.409Z,3088
2018-09-26T07:01:16.344Z,3080
2018-09-26T07:02:25.928Z,3156
2018-09-26T07:03:36.065Z,3228
2018-09-26T07:04:46.198Z,3280
2018-09-26T07:05:55.788Z,3256
2018-09-26T07:07:05.647Z,3304
2018-09-26T07:08:15.828Z,3364
2018-09-26T07:09:25.964Z,3688
2018-09-26T07:10:35.822Z,3864
2018-09-26T07:11:45.684Z,4024
2018-09-26T07:12:55.540Z,4316
2018-09-26T07:14:05.402Z,4568
2018-09-26T07:15:15.546Z,4752
2018-09-26T07:16:25.133Z,4532
2018-09-26T07:17:35.270Z,4604
2018-09-26T07:18:45.132Z,4308
2018-09-26T07:19:54.768Z,4196
2018-09-26T07:21:04.626Z,4004
2018-09-26T07:22:14.773Z,4216
2018-09-26T07:23:24.634Z,4128
2018-09-26T07:24:34.773Z,3852
2018-09-26T07:25:44.968Z,3816
2018-09-26T07:26:54.836Z,3832
2018-09-26T07:28:04.970Z,4024
2018-09-26T07:29:14.553Z,4192
2018-09-26T07:30:24.423Z,4212
2018-09-26T07:31:34.771Z,4324
2018-09-26T07:32:45.084Z,4156
2018-09-26T07:33:54.949Z,4012
2018-09-26T07:35:04.533Z,3852
2018-09-26T07:36:14.677Z,3848
2018-09-26T07:37:24.588Z,4032
2018-09-26T07:38:35.058Z,4284
2018-09-26T07:39:45.390Z,4552
2018-09-26T07:40:55.245Z,4956
2018-09-26T07:42:05.102Z,5508
2018-09-26T07:43:15.295Z,5732
2018-09-26T07:44:25.156Z,5544
2018-09-26T07:45:35.688Z,5316
2018-09-26T07:46:46.012Z,5352
2018-09-26T07:47:55.873Z,5428
2018-09-26T07:49:06.066Z,4872
2018-09-26T07:50:15.925Z,4688
2018-09-26T07:51:25.786Z,4576
2018-09-26T07:52:35.929Z,4760
2018-09-26T07:53:45.514Z,5280
2018-09-26T07:54:55.374Z,5512
2018-09-26T07:56:05.507Z,5808
2018-09-26T07:57:15.370Z,5896
2018-09-26T07:58:25.226Z,6292
2018-09-26T07:59:35.088Z,6588
2018-09-26T08:00:45.004Z,6328
2018-09-26T08:01:54.597Z,6220
2018-09-26T08:03:04.494Z,6000
2018-09-26T08:04:14.630Z,5592
2018-09-26T08:05:24.493Z,5184
2018-09-26T08:06:34.686Z,4740
2018-09-26T08:07:44.269Z,4488
2018-09-26T08:08:54.127Z,4280
2018-09-26T08:10:03.982Z,4308
2018-09-26T08:11:13.689Z,4552
2018-09-26T08:12:23.960Z,4748
2018-09-26T08:13:34.102Z,4904
2018-09-26T08:14:43.714Z,5424
2018-09-26T08:15:53.574Z,6044
2018-09-26T08:17:03.712Z,6388
2018-09-26T08:18:13.525Z,6832
2018-09-26T08:19:23.631Z,6768
2018-09-26T08:20:33.769Z,6924
2018-09-26T08:21:43.631Z,7028
2018-09-26T08:22:53.770Z,7020
2018-09-26T08:24:04.533Z,6500
2018-09-26T08:25:14.677Z,6684
2018-09-26T08:26:24.818Z,7780
2018-09-26T08:27:34.406Z,9300
2018-09-26T08:28:44.285Z,9128
2018-09-26T08:29:54.709Z,8964
2018-09-26T08:31:04.959Z,8396
2018-09-26T08:32:15.098Z,6880
2018-09-26T08:33:24.963Z,6588
2018-09-26T08:34:34.824Z,7044
2018-09-26T08:35:44.965Z,6836
2018-09-26T08:36:54.825Z,7148
2018-09-26T08:38:04.975Z,7280
2018-09-26T08:39:14.293Z,7400
2018-09-26T08:40:24.432Z,7360
2018-09-26T08:41:34.293Z,7352
2018-09-26T08:42:43.877Z,7304
2018-09-26T08:43:54.307Z,7444
2018-09-26T08:45:03.863Z,7684
2018-09-26T08:46:13.998Z,7472
2018-09-26T08:47:23.865Z,7172
2018-09-26T08:48:34.002Z,7228
2018-09-26T08:49:44.139Z,7168
2018-09-26T08:50:54.272Z,7196
2018-09-26T08:52:04.133Z,7296
2018-09-26T08:53:13.999Z,6972
2018-09-26T08:54:23.872Z,6812
2018-09-26T08:55:33.456Z,6296
2018-09-26T08:56:43.592Z,5912
2018-09-26T08:57:53.731Z,5108
2018-09-26T08:59:03.868Z,4272
2018-09-26T09:00:13.730Z,3860
2018-09-26T09:01:23.596Z,3848
2018-09-26T09:02:33.456Z,3820
2018-09-26T09:03:43.321Z,3696
2018-09-26T09:04:53.201Z,3668
2018-09-26T09:06:03.103Z,4192
2018-09-26T09:07:13.006Z,4320
2018-09-26T09:08:22.043Z,4324
2018-09-26T09:09:31.910Z,4336
2018-09-26T09:10:41.506Z,4328
2018-09-26T09:11:51.303Z,4356
2018-09-26T09:13:01.178Z,4296
2018-09-26T09:14:11.433Z,4332
2018-09-26T09:15:21.499Z,4556
2018-09-26T09:16:31.686Z,5136
2018-09-26T09:17:41.762Z,6428
2018-09-26T09:18:51.962Z,7236
2018-09-26T09:20:01.827Z,6964
2018-09-26T09:21:11.702Z,7800
2018-09-26T09:22:21.567Z,10520
2018-09-26T09:23:31.714Z,9852
2018-09-26T09:24:41.853Z,9132
2018-09-26T09:25:51.717Z,7752
2018-09-26T09:27:01.530Z,8244
2018-09-26T09:28:11.062Z,7924
2018-09-26T09:29:20.567Z,9924
2018-09-26T09:30:30.345Z,9012
2018-09-26T09:31:40.389Z,6320
2018-09-26T09:32:49.896Z,5032
2018-09-26T09:33:59.939Z,5544
2018-09-26T09:35:09.234Z,4336
2018-09-26T09:36:19.372Z,4544
2018-09-26T09:37:28.997Z,3576
2018-09-26T09:38:38.866Z,3220
2018-09-26T09:39:48.736Z,2868
2018-09-26T09:40:58.870Z,2204
2018-09-26T09:42:08.736Z,2300
2018-09-26T09:43:18.322Z,2452
2018-09-26T09:44:28.623Z,2644
2018-09-26T09:45:38.933Z,2604
2018-09-26T09:46:48.785Z,3924
2018-09-26T09:47:58.325Z,3384
2018-09-26T09:49:08.106Z,2684
2018-09-26T09:50:17.814Z,3500
2018-09-26T09:51:27.774Z,5404
2018-09-26T09:52:37.556Z,2784
2018-09-26T09:53:47.325Z,2560
2018-09-26T09:54:57.362Z,3460
2018-09-26T09:56:07.433Z,4356
2018-09-26T09:57:17.568Z,2848
2018-09-26T09:58:27.610Z,2628
2018-09-26T09:59:37.646Z,2956
2018-09-26T10:00:47.424Z,3288
2018-09-26T10:01:57.465Z,2916
2018-09-26T10:03:08.583Z,2868
2018-09-26T10:04:18.882Z,3976
2018-09-26T10:05:28.937Z,4088
2018-09-26T10:06:38.712Z,4616
2018-09-26T10:07:48.747Z,4324
2018-09-26T10:08:59.221Z,4912
2018-09-26T10:10:08.991Z,3660
2018-09-26T10:11:19.023Z,3432
2018-09-26T10:12:28.791Z,4624
2018-09-26T10:13:38.558Z,3872
2018-09-26T10:14:48.593Z,4016
2018-09-26T10:15:58.640Z,5012
2018-09-26T10:17:08.404Z,3712
2018-09-26T10:18:18.170Z,4412
2018-09-26T10:19:27.936Z,4652
2018-09-26T10:20:37.976Z,4428
2018-09-26T10:21:47.745Z,4636
2018-09-26T10:22:57.513Z,4624
2018-09-26T10:24:07.545Z,4764
2018-09-26T10:25:18.090Z,4804
2018-09-26T10:26:28.256Z,4592
2018-09-26T10:27:37.748Z,4548
2018-09-26T10:28:47.521Z,4748
2018-09-26T10:29:57.286Z,4568
2018-09-26T10:31:06.516Z,4520
2018-09-26T10:32:16.146Z,4868
2018-09-26T10:33:26.384Z,4696
2018-09-26T10:34:36.152Z,4952
2018-09-26T10:35:46.203Z,5000
2018-09-26T10:36:55.980Z,5216
2018-09-26T10:38:05.771Z,5560
2018-09-26T10:39:15.565Z,5588
2018-09-26T10:40:25.334Z,6120
2018-09-26T10:41:34.297Z,5820
2018-09-26T10:42:44.333Z,6216
2018-09-26T10:43:54.104Z,6392
2018-09-26T10:45:03.604Z,6076
2018-09-26T10:46:13.369Z,6288
2018-09-26T10:47:23.410Z,5920
2018-09-26T10:48:33.184Z,6040
2018-09-26T10:49:42.727Z,6640
2018-09-26T10:50:52.488Z,6240
2018-09-26T10:52:02.251Z,6308
2018-09-26T10:53:12.020Z,6324
2018-09-26T10:54:21.533Z,7240
2018-09-26T10:55:31.576Z,14136
2018-09-26T10:56:42.382Z,44672
2018-09-26T10:57:52.162Z,54400
2018-09-26T10:59:01.932Z,41632
2018-09-26T11:00:11.709Z,43680
2018-09-26T11:01:21.741Z,37856
2018-09-26T11:02:31.929Z,21952
2018-09-26T11:03:42.093Z,47616
2018-09-26T11:04:51.872Z,44448
2018-09-26T11:06:01.111Z,48128
2018-09-26T11:07:11.170Z,55264
2018-09-26T11:08:21.187Z,47648
2018-09-26T11:09:31.189Z,33632
2018-09-26T11:10:41.226Z,23872
2018-09-26T11:11:50.999Z,30944
2018-09-26T11:13:00.776Z,12960
2018-09-26T11:14:10.335Z,10044
2018-09-26T11:15:20.389Z,49984
2018-09-26T11:16:30.530Z,62432
2018-09-26T11:17:40.723Z,65440
2018-09-26T11:18:51.001Z,64608
2018-09-26T11:20:01.219Z,54592
2018-09-26T11:21:11.206Z,55808
2018-09-26T11:22:21.483Z,34112
2018-09-26T11:23:30.997Z,45344
2018-09-26T11:24:41.044Z,61696
2018-09-26T11:25:51.077Z,57760
2018-09-26T11:27:01.116Z,57216
2018-09-26T11:28:10.768Z,55232
2018-09-26T11:29:20.517Z,52416
2018-09-26T11:30:30.290Z,54016
2018-09-26T11:31:40.334Z,50976
2018-09-26T11:32:50.379Z,44064
2018-09-26T11:33:59.888Z,52448
2018-09-26T11:35:09.466Z,30816
2018-09-26T11:36:19.238Z,46560
2018-09-26T11:37:29.289Z,40576
2018-09-26T11:38:39.062Z,38304
2018-09-26T11:39:49.106Z,47680
2018-09-26T11:40:58.882Z,46816
2018-09-26T11:42:08.657Z,48256
2018-09-26T11:43:18.697Z,49280
2018-09-26T11:44:29.135Z,52448
2018-09-26T11:45:38.706Z,53536
2018-09-26T11:46:48.748Z,54048
2018-09-26T11:47:58.536Z,49696
2018-09-26T11:49:08.601Z,42784
2018-09-26T11:50:18.567Z,27232
2018-09-26T11:51:28.224Z,37856
2018-09-26T11:52:38.340Z,44480
2018-09-26T11:53:48.539Z,48864
2018-09-26T11:54:58.717Z,43680
2018-09-26T11:56:09.338Z,28832
2018-09-26T11:57:19.218Z,16768
2018-09-26T11:58:29.583Z,16736
2018-09-26T11:59:39.744Z,15736
2018-09-26T12:00:49.613Z,12040
2018-09-26T12:01:59.808Z,11372
2018-09-26T12:03:09.690Z,16576
2018-09-26T12:04:20.120Z,15228
2018-09-26T12:05:30.482Z,17376
2018-09-26T12:06:40.634Z,13476
2018-09-26T12:07:50.791Z,14612
2018-09-26T12:09:00.663Z,14544
2018-09-26T12:10:10.982Z,18304
2018-09-26T12:11:20.957Z,26432
2018-09-26T12:12:31.213Z,13704
2018-09-26T12:13:41.146Z,16164
2018-09-26T12:14:51.129Z,19904
2018-09-26T12:16:01.270Z,16960
2018-09-26T12:17:11.158Z,16316
2018-09-26T12:18:21.683Z,21792
2018-09-26T12:19:32.078Z,25120
2018-09-26T12:20:41.953Z,24992
2018-09-26T12:21:52.292Z,24736
2018-09-26T12:23:01.956Z,24704
2018-09-26T12:24:11.975Z,24640
2018-09-26T12:25:22.674Z,24224
2018-09-26T12:26:33.045Z,23744
2018-09-26T12:27:43.304Z,23968
2018-09-26T12:28:53.627Z,24064
2018-09-26T12:30:03.508Z,24352
2018-09-26T12:31:13.407Z,24128
2018-09-26T12:32:23.280Z,24288
2018-09-26T12:33:33.434Z,24576
2018-09-26T12:34:42.926Z,24704
2018-09-26T12:35:52.782Z,24416
2018-09-26T12:37:02.928Z,24544
2018-09-26T12:38:13.083Z,24320
2018-09-26T12:39:22.956Z,24448
2018-09-26T12:40:33.296Z,24672
2018-09-26T12:41:42.894Z,24672
2018-09-26T12:42:52.317Z,24768
2018-09-26T12:44:02.756Z,25792
2018-09-26T12:45:12.914Z,24928
2018-09-26T12:46:23.581Z,25152
2018-09-26T12:47:34.043Z,25088
2018-09-26T12:48:44.155Z,25664
2018-09-26T12:49:54.312Z,18144
2018-09-26T12:51:04.187Z,20032
2018-09-26T12:52:14.329Z,11084
2018-09-26T12:53:24.350Z,11668
2018-09-26T12:54:34.389Z,21536
2018-09-26T12:55:44.278Z,12636
2018-09-26T12:56:54.157Z,9768
2018-09-26T12:58:03.865Z,7564
2018-09-26T12:59:14.051Z,11308
2018-09-26T13:00:24.397Z,11960
2018-09-26T13:01:34.121Z,8304
2018-09-26T13:02:44.259Z,6856
2018-09-26T13:03:54.658Z,6484
2018-09-26T13:05:04.253Z,6680
2018-09-26T13:06:13.667Z,6356
2018-09-26T13:07:23.698Z,7296
2018-09-26T13:08:33.750Z,6904
2018-09-26T13:09:43.122Z,6212
2018-09-26T13:10:53.266Z,6564
2018-09-26T13:12:03.417Z,8288
2018-09-26T13:13:13.322Z,8040
2018-09-26T13:14:23.890Z,7080
2018-09-26T13:15:34.106Z,12056
2018-09-26T13:16:44.256Z,13180
2018-09-26T13:17:53.849Z,9480
2018-09-26T13:19:04.402Z,6784
2018-09-26T13:20:14.612Z,8608
2018-09-26T13:21:24.980Z,11092
2018-09-26T13:22:35.134Z,12104
2018-09-26T13:23:45.276Z,10912
2018-09-26T13:24:55.159Z,8876
2018-09-26T13:26:05.042Z,10548
2018-09-26T13:27:14.997Z,10940
2018-09-26T13:28:24.887Z,11128
2018-09-26T13:29:35.309Z,10748
2018-09-26T13:30:45.450Z,8108
2018-09-26T13:31:55.595Z,12624
2018-09-26T13:33:05.792Z,8536
2018-09-26T13:34:15.864Z,10504
2018-09-26T13:35:26.095Z,10000
2018-09-26T13:36:36.243Z,8908
2018-09-26T13:37:46.126Z,7540
2018-09-26T13:38:56.528Z,8372
2018-09-26T13:40:06.863Z,7616
2018-09-26T13:41:17.027Z,7296
2018-09-26T13:42:27.537Z,6208
2018-09-26T13:43:37.493Z,5776
2018-09-26T13:44:47.705Z,8948
2018-09-26T13:45:58.061Z,7384
2018-09-26T13:47:07.954Z,6196
2018-09-26T13:48:18.417Z,9032
2018-09-26T13:49:28.426Z,14844
2018-09-26T13:50:38.346Z,8648
2018-09-26T13:51:48.488Z,6256
2018-09-26T13:52:58.359Z,11732
2018-09-26T13:54:08.865Z,9632
2018-09-26T13:55:19.187Z,5624
2018-09-26T13:56:28.904Z,5680
2018-09-26T13:57:38.810Z,6688
2018-09-26T13:58:48.950Z,7296
2018-09-26T13:59:58.814Z,5020
2018-09-26T14:01:08.410Z,9832
2018-09-26T14:02:18.924Z,5748
2018-09-26T14:03:29.249Z,6328
2018-09-26T14:04:39.391Z,4888
2018-09-26T14:05:49.255Z,5508
2018-09-26T14:06:59.127Z,5588
2018-09-26T14:08:08.765Z,4980
2018-09-26T14:09:18.912Z,4628
2018-09-26T14:10:29.130Z,4712
2018-09-26T14:11:39.378Z,4708
2018-09-26T14:12:49.524Z,5076
2018-09-26T14:13:59.711Z,4624
2018-09-26T14:15:09.303Z,6000
2018-09-26T14:16:19.166Z,5208
2018-09-26T14:17:29.078Z,13476
2018-09-26T14:18:39.252Z,11752
2018-09-26T14:19:49.131Z,7312
2018-09-26T14:20:58.996Z,5528
2018-09-26T14:22:08.922Z,14596
2018-09-26T14:23:19.682Z,25408
2018-09-26T14:24:29.967Z,13824
2018-09-26T14:25:40.152Z,19744
2018-09-26T14:26:49.474Z,17312
2018-09-26T14:27:59.345Z,32416
2018-09-26T14:29:09.568Z,42336
2018-09-26T14:30:20.145Z,53824
2018-09-26T14:31:29.948Z,41440
2018-09-26T14:32:40.090Z,41568
2018-09-26T14:33:50.353Z,50688
2018-09-26T14:35:00.703Z,53184
2018-09-26T14:36:11.027Z,53184
2018-09-26T14:37:21.079Z,53536
2018-09-26T14:38:31.611Z,51200
2018-09-26T14:39:42.461Z,51776
2018-09-26T14:40:52.464Z,49184
2018-09-26T14:42:02.328Z,52736
2018-09-26T14:43:12.246Z,52032
2018-09-26T14:44:22.853Z,47456
2018-09-26T14:45:33.077Z,27520
2018-09-26T14:46:43.339Z,23776
2018-09-26T14:47:53.204Z,36352
2018-09-26T14:49:03.074Z,45504
2018-09-26T14:50:13.377Z,43616
2018-09-26T14:51:23.358Z,37408
2018-09-26T14:52:33.540Z,30464
2018-09-26T14:53:43.404Z,38208
2018-09-26T14:54:53.609Z,39456
2018-09-26T14:56:03.775Z,47776
2018-09-26T14:57:13.776Z,47936
2018-09-26T14:58:24.507Z,40960
2018-09-26T14:59:34.481Z,46336
2018-09-26T15:00:44.689Z,47936
2018-09-26T15:01:54.558Z,48768
2018-09-26T15:03:04.428Z,47200
2018-09-26T15:04:14.625Z,45696
2018-09-26T15:05:24.990Z,39584
2018-09-26T15:06:35.021Z,45312
2018-09-26T15:07:45.176Z,44256
2018-09-26T15:08:55.660Z,41408
2018-09-26T15:10:05.254Z,43040
2018-09-26T15:11:14.849Z,42368
2018-09-26T15:12:25.398Z,42720
2018-09-26T15:13:35.062Z,29888
2018-09-26T15:14:44.936Z,28960
2018-09-26T15:15:55.087Z,34016
2018-09-26T15:17:04.684Z,36128
2018-09-26T15:18:14.588Z,30368
2018-09-26T15:19:24.916Z,26528
2018-09-26T15:20:35.452Z,26304
2018-09-26T15:21:45.724Z,26464
2018-09-26T15:22:55.871Z,17312
2018-09-26T15:24:05.803Z,13580
2018-09-26T15:25:15.680Z,6540
2018-09-26T15:26:26.264Z,7860
2018-09-26T15:27:36.473Z,4532
2018-09-26T15:28:46.469Z,4360
2018-09-26T15:29:56.664Z,4016
2018-09-26T15:31:06.529Z,4664
2018-09-26T15:32:16.560Z,3708
2018-09-26T15:33:26.874Z,4388
2018-09-26T15:34:36.467Z,4232
2018-09-26T15:35:46.676Z,4540
2018-09-26T15:36:56.544Z,4240
2018-09-26T15:38:06.487Z,4176
2018-09-26T15:39:16.432Z,4884
2018-09-26T15:40:26.102Z,4480
2018-09-26T15:41:36.328Z,5848
2018-09-26T15:42:46.695Z,8684
2018-09-26T15:43:56.288Z,5192
2018-09-26T15:45:06.153Z,5100
2018-09-26T15:46:16.605Z,4980
2018-09-26T15:47:26.306Z,5000
2018-09-26T15:48:36.953Z,4816
2018-09-26T15:49:47.462Z,4732
2018-09-26T15:50:57.327Z,4448
2018-09-26T15:52:06.934Z,4480
2018-09-26T15:53:17.258Z,4680
2018-09-26T15:54:27.779Z,4948
2018-09-26T15:55:37.672Z,4896